Аэропорт: Игнатьево. Благовещенск

ICAO: UHBB

METAR:
2019/03/26 13:00
UHBB 261300Z 32002MPS 270V010 CAVOK M06/M17 Q1014 R36/090060 NOSIG RMK QFE743/0991
METAR:
2019/03/26 12:00
TAF UHBB 261037Z 2612/2712 34003MPS CAVOK 
      BECMG 2623/2701 35006G11MPS 
      BECMG 2708/2710 35003MPS